Quirindi, New South Wales

7:20 PM EST on July 10, 2014 (GMT +1000)
Tamworth (YSTW) Elev 1345 ft | 31.08 °S, 150.85 °E | Change Station

Current weather conditions updated 20 minutes ago

Scattered Clouds
Scattered Clouds
45 °F
Feels Like 41 °F
N
6
Wind Variable Wind from North

Tomorrow is forecast to be Warmer than today.

Today
High -- | Low -- °F
--% Chance of Precip.
Yesterday
High -- | Low -- °F
Precip. -- in
6:56 AM 5:09 PM
Waxing Gibbous, 94% visible
Pressure 30.04 in
Visibility 6.2 miles
Clouds Scattered Clouds 5400 ft
Windchill 41 °F
Dew Point 32 °F
Humidity 61%
Rainfall 0.00 in
Snow Depth Not available.
UV 0 out of 12
Pollen Not available.
Air Quality Not available.
Flu Activity Not available.
METAR YSTW 100900Z AUTO 35005KT 9999 // SCT054 07/M00 Q1017 RMK SWV:3.0.1 OID:SYSTEM/STANDBY SNT:201407100900 SP30/10/10/10/5/2/99/00/1666/7000/WAP:10 MSG:0112/259/000/000

More Conditions Fewer Conditions

Pressure 30.04 in
Visibility 6.2 miles
Clouds Scattered Clouds 5400 ft
Windchill 41 °F
Dew Point 32 °F
Humidity 61%
Rainfall 0.00 in
Snow Depth Not available.
UV 0 out of 12
Pollen Not available.
Air Quality Not available.
Flu Activity Not available.
METAR YSTW 100900Z AUTO 35005KT 9999 // SCT054 07/M00 Q1017 RMK SWV:3.0.1 OID:SYSTEM/STANDBY SNT:201407100900 SP30/10/10/10/5/2/99/00/1666/7000/WAP:10 MSG:0112/259/000/000

More Conditions Fewer Conditions

10-Day Weather Forecast

Almanac

Astronomy

Jul. 10, 2014 Rise Set
Actual Time 6:56 AM EST 5:09 PM EST
Civil Twilight 6:29 AM EST 5:35 PM EST
Nautical Twilight 5:59 AM EST 6:05 PM EST
Astronomical Twilight 5:30 AM EST 6:35 PM EST
Moon 3:00 PM EST 4:08 AM EST
Length of Visible Light 11h 05m
Length of Day
10h 12m
Tomorrow will be 0m 45s longer.
Waxing Gibbous, 94% of the Moon is Illuminated
Today
Waxing Gibbous
Jul 12
Full
Jul 18
Last Quarter
Jul 26
New
Aug 3
First Quarter

Yesterday's Extremes

Country Highs Country Lows

Community

WunderPhotos

Upload Photos

1,732,085 photos uploaded!

Nearby

Snow Depth

Not available.

Earthquake Activity

City Distance Mag. Time & Date
No recent earthquake activity has been reported nearby.
Minimum magnitude displayed is 2.5.

Coastal Water Temperatures

Place Temperature
No Stations Reporting

Nearby Weather Stations

There are no personal weather stations in this area.